You are not logged in, Click here to log in
ICAO: RJFM Country: 日本宮崎縣宮崎市
Latitude: 31.8762 Longitude: 131.447
Total Arrivals: 15 Total Departures: 19
Latest Arrival: 6J68 (ROAH-RJFM)鈺友. 陳 Latest Departure: EH348 (RJFM-RJGG)鈺友. 陳
Scenery:
METAR : RJFM 241100Z 36003KT 9999 FEW030 23/17 Q1013

宮崎機場KMI